Time;durP1;ratioP1;P1;durP2;ratioP2;P2;SDS_P1;SDS_P2;PMS_P1;PMS_P2;Temp;Humidity;BMP_temperature;BMP_pressure;BME280_temperature;BME280_humidity;BME280_pressure;Samples;Min_cycle;Max_cycle;Signal;HPM_P1;HPM_P2
2022/04/27 00:02:13;;;;;;;11.00;7.73;;;;;;;7.52;100.00;99027.88;5019247;28;20712;-51
2022/04/27 00:04:41;;;;;;;11.93;8.40;;;;;;;7.50;100.00;99017.59;4991426;28;20210;-51
2022/04/27 00:07:08;;;;;;;12.17;8.80;;;;;;;7.54;100.00;99026.81;4991932;28;20194;-51
2022/04/27 00:09:35;;;;;;;10.17;7.77;;;;;;;7.58;100.00;99022.22;4991748;28;20183;-51
2022/04/27 00:12:04;;;;;;;12.20;8.93;;;;;;;7.52;100.00;99015.72;4991711;28;20206;-52
2022/04/27 00:14:31;;;;;;;10.40;7.40;;;;;;;7.55;100.00;99019.84;4991065;28;20244;-51
2022/04/27 00:16:59;;;;;;;12.53;8.47;;;;;;;7.54;100.00;99006.03;4991850;28;20654;-51
2022/04/27 00:19:27;;;;;;;11.67;8.40;;;;;;;7.58;100.00;99003.19;4991240;28;20186;-54
2022/04/27 00:21:54;;;;;;;10.90;7.10;;;;;;;7.57;100.00;99009.31;4991909;28;20574;-53
2022/04/27 00:24:21;;;;;;;10.63;8.10;;;;;;;7.62;100.00;99010.63;4991603;28;20211;-51
2022/04/27 00:26:48;;;;;;;12.27;8.50;;;;;;;7.62;100.00;99020.19;4990585;28;20574;-51
2022/04/27 00:29:16;;;;;;;11.97;8.20;;;;;;;7.59;100.00;99017.81;4991361;28;20237;-51
2022/04/27 00:31:42;;;;;;;13.07;9.10;;;;;;;7.58;100.00;99017.00;4991599;28;20203;-52
2022/04/27 00:34:09;;;;;;;13.53;8.97;;;;;;;7.52;100.00;99013.13;5001265;28;20682;-53
2022/04/27 00:36:36;;;;;;;13.10;9.87;;;;;;;7.51;100.00;99013.25;5004144;28;20200;-51
2022/04/27 00:39:03;;;;;;;15.80;9.37;;;;;;;7.60;100.00;99019.47;5003159;28;20193;-51
2022/04/27 00:41:31;;;;;;;14.23;9.20;;;;;;;7.52;100.00;99023.50;5028074;28;20195;-52
2022/04/27 00:43:57;;;;;;;14.53;10.07;;;;;;;7.49;100.00;99020.34;5014725;28;20210;-53
2022/04/27 00:46:26;;;;;;;16.87;10.47;;;;;;;7.56;100.00;99028.47;5013691;28;20286;-50
2022/04/27 00:48:53;;;;;;;14.83;10.20;;;;;;;7.54;100.00;99023.41;5014497;28;20192;-51
2022/04/27 00:51:23;;;;;;;19.10;10.77;;;;;;;7.54;100.00;99028.59;5008351;28;20701;-53
2022/04/27 00:53:51;;;;;;;15.37;10.57;;;;;;;7.52;100.00;99023.50;4996693;28;20292;-51
2022/04/27 00:56:21;;;;;;;19.03;10.83;;;;;;;7.51;100.00;99023.63;4993637;28;20229;-51
2022/04/27 00:58:48;;;;;;;14.90;10.23;;;;;;;7.51;100.00;99027.06;4999095;28;20202;-51
2022/04/27 01:01:15;;;;;;;16.10;10.93;;;;;;;7.52;100.00;99031.28;4995079;28;20265;-52
2022/04/27 01:03:44;;;;;;;13.57;9.97;;;;;;;7.55;100.00;99027.66;4992458;28;20220;-51
2022/04/27 01:06:11;;;;;;;15.13;10.90;;;;;;;7.57;100.00;99020.56;5014225;28;20186;-52
2022/04/27 01:08:37;;;;;;;16.17;11.27;;;;;;;7.64;100.00;99028.69;4996270;28;20194;-53
2022/04/27 01:11:06;;;;;;;15.57;11.10;;;;;;;7.64;100.00;99037.31;4996458;28;20279;-51
2022/04/27 01:13:39;;;;;;;17.43;11.03;;;;;;;7.57;100.00;99036.16;4996516;28;20709;-51
2022/04/27 01:16:06;;;;;;;15.60;10.70;;;;;;;7.51;100.00;99032.25;4996472;28;20204;-51
2022/04/27 01:18:33;;;;;;;15.10;10.47;;;;;;;7.52;100.00;99031.28;5012541;28;20597;-53
2022/04/27 01:21:02;;;;;;;14.33;10.53;;;;;;;7.54;100.00;99036.38;5013778;28;20570;-51
2022/04/27 01:23:30;;;;;;;16.97;11.07;;;;;;;7.54;100.00;99034.59;5006343;28;20300;-51
2022/04/27 01:26:05;;;;;;;17.47;10.50;;;;;;;7.62;100.00;99034.00;5015773;28;20212;-52
2022/04/27 01:28:32;;;;;;;15.53;10.17;;;;;;;7.56;100.00;99034.50;5033090;28;20640;-51
2022/04/27 01:31:01;;;;;;;18.67;11.17;;;;;;;7.54;100.00;99037.19;5016088;28;20185;-53
2022/04/27 01:33:30;;;;;;;17.80;11.27;;;;;;;7.53;100.00;99034.75;4986745;28;20251;-54
2022/04/27 01:35:58;;;;;;;18.53;11.87;;;;;;;7.58;100.00;99037.78;4987418;28;20283;-52
2022/04/27 01:38:27;;;;;;;20.30;12.07;;;;;;;7.57;100.00;99032.72;4995353;28;20196;-51
2022/04/27 01:40:55;;;;;;;18.93;11.97;;;;;;;7.60;100.00;99035.06;4995779;28;20228;-51
2022/04/27 01:43:24;;;;;;;18.97;12.50;;;;;;;7.55;100.00;99032.84;5013883;28;20212;-51
2022/04/27 01:45:51;;;;;;;21.33;14.33;;;;;;;7.56;100.00;99039.69;4997629;28;20205;-51
2022/04/27 01:48:18;;;;;;;19.57;13.23;;;;;;;7.62;100.00;99043.56;5015840;28;20199;-53
2022/04/27 01:50:45;;;;;;;19.40;13.03;;;;;;;7.56;100.00;99039.69;5015472;28;20215;-53
2022/04/27 01:56:00;;;;;;;20.77;12.87;;;;;;;7.47;100.00;99045.59;4968451;28;20200;-52
2022/04/27 01:58:32;;;;;;;20.93;13.60;;;;;;;7.39;100.00;99036.66;4995120;28;20193;-51
2022/04/27 02:01:00;;;;;;;22.63;13.80;;;;;;;7.39;100.00;99036.66;5000789;28;20209;-51
2022/04/27 02:03:29;;;;;;;21.80;13.00;;;;;;;7.39;100.00;99034.03;4998138;28;21061;-52
2022/04/27 02:05:57;;;;;;;20.30;12.57;;;;;;;7.41;100.00;99043.50;5002879;28;20665;-51
2022/04/27 02:08:25;;;;;;;23.03;14.17;;;;;;;7.37;100.00;99045.53;4998485;28;20600;-51
2022/04/27 02:10:52;;;;;;;23.43;15.50;;;;;;;7.38;100.00;99047.16;4995886;28;20197;-52
2022/04/27 02:13:21;;;;;;;22.87;15.13;;;;;;;7.41;100.00;99040.91;5013581;28;20238;-52
2022/04/27 02:15:48;;;;;;;24.87;15.57;;;;;;;7.43;100.00;99047.59;4996012;28;20228;-52
2022/04/27 02:18:36;;;;;;;24.07;15.80;;;;;;;7.47;100.00;99050.81;5014542;28;20216;-51
2022/04/27 02:21:05;;;;;;;23.90;15.57;;;;;;;7.48;100.00;99050.66;4991140;28;20192;-52
2022/04/27 02:23:32;;;;;;;23.53;15.10;;;;;;;7.48;100.00;99052.47;4997532;28;20235;-53
2022/04/27 02:26:01;;;;;;;23.97;15.43;;;;;;;7.46;100.00;99049.16;4998443;28;20295;-51
2022/04/27 02:28:29;;;;;;;21.73;14.93;;;;;;;7.51;100.00;99057.41;4999014;28;20201;-52
2022/04/27 02:30:56;;;;;;;25.87;16.00;;;;;;;7.48;100.00;99037.69;4995782;28;20251;-53
2022/04/27 02:33:23;;;;;;;24.67;15.83;;;;;;;7.49;100.00;99041.94;4995475;28;20221;-51
2022/04/27 02:35:51;;;;;;;24.53;15.07;;;;;;;7.51;100.00;99039.22;5000040;28;20243;-52
2022/04/27 02:38:18;;;;;;;22.83;14.40;;;;;;;7.52;100.00;99033.91;4995367;28;20205;-52
2022/04/27 02:40:46;;;;;;;23.67;15.37;;;;;;;7.43;100.00;99042.41;4993758;28;20689;-52
2022/04/27 02:43:13;;;;;;;24.20;16.17;;;;;;;7.44;100.00;99041.47;4995184;28;20709;-52
2022/04/27 02:45:41;;;;;;;23.17;15.23;;;;;;;7.45;100.00;99037.91;4995952;28;20251;-51
2022/04/27 02:48:09;;;;;;;24.13;14.83;;;;;;;7.46;100.00;99044.78;5001272;28;20601;-51
2022/04/27 02:53:22;;;;;;;25.50;15.73;;;;;;;7.51;100.00;99040.03;5021573;28;20279;-52
2022/04/27 02:55:52;;;;;;;24.30;13.97;;;;;;;7.54;100.00;99046.78;5002933;28;20196;-52
2022/04/27 02:58:19;;;;;;;22.67;15.23;;;;;;;7.54;100.00;99047.59;5015030;28;21573;-52
2022/04/27 03:00:47;;;;;;;25.33;15.70;;;;;;;7.57;100.00;99053.50;4995449;28;20203;-55
2022/04/27 03:03:16;;;;;;;24.57;16.20;;;;;;;7.48;100.00;99055.06;5000262;28;20520;-51
2022/04/27 03:05:44;;;;;;;25.67;15.70;;;;;;;7.48;100.00;99063.66;4998181;28;20209;-51
2022/04/27 03:08:11;;;;;;;25.13;15.67;;;;;;;7.54;100.00;99064.97;4998968;28;21065;-53
2022/04/27 03:10:48;;;;;;;27.60;16.80;;;;;;;7.47;100.00;99067.19;5000690;28;20209;-54
2022/04/27 03:13:16;;;;;;;27.87;15.27;;;;;;;7.50;100.00;99066.16;4997708;28;20229;-51
2022/04/27 03:15:44;;;;;;;24.10;15.30;;;;;;;7.51;100.00;99071.22;4993495;28;20197;-53
2022/04/27 03:18:19;;;;;;;23.80;15.67;;;;;;;7.50;100.00;99071.34;4996838;28;20202;-51
2022/04/27 03:20:49;;;;;;;26.03;16.67;;;;;;;7.53;100.00;99074.50;4995020;28;20735;-51
2022/04/27 03:23:16;;;;;;;23.70;15.20;;;;;;;7.56;100.00;99070.88;5000718;28;20219;-51
2022/04/27 03:25:44;;;;;;;26.10;14.97;;;;;;;7.53;100.00;99064.13;4999286;28;20205;-53
2022/04/27 03:28:13;;;;;;;21.83;14.37;;;;;;;7.53;100.00;99066.72;5001645;28;20284;-51
2022/04/27 03:30:40;;;;;;;24.17;15.73;;;;;;;7.54;100.00;99073.56;4997967;28;20313;-51
2022/04/27 03:33:19;;;;;;;25.00;17.23;;;;;;;7.55;100.00;99071.81;4996560;28;20233;-54
2022/04/27 03:35:46;;;;;;;25.27;15.40;;;;;;;7.57;100.00;99076.88;4998280;28;20680;-53
2022/04/27 03:38:14;;;;;;;24.73;15.87;;;;;;;7.56;100.00;99068.28;4996108;28;20189;-51
2022/04/27 03:40:41;;;;;;;24.67;15.33;;;;;;;7.54;100.00;99070.16;4995813;28;20205;-51
2022/04/27 03:43:09;;;;;;;24.77;14.97;;;;;;;7.54;100.00;99073.56;4995789;28;20579;-53
2022/04/27 03:45:37;;;;;;;24.43;16.03;;;;;;;7.56;100.00;99076.06;4995786;28;20192;-54
2022/04/27 03:48:05;;;;;;;21.70;14.07;;;;;;;7.56;100.00;99075.22;4999079;28;20304;-51
2022/04/27 03:50:33;;;;;;;25.33;16.30;;;;;;;7.54;100.00;99088.34;5000721;28;20216;-51
2022/04/27 03:53:00;;;;;;;29.33;17.50;;;;;;;7.54;100.00;99080.56;4999766;28;20203;-50
2022/04/27 03:55:33;;;;;;;25.60;15.60;;;;;;;7.54;100.00;99091.75;4999968;28;20207;-52
2022/04/27 03:58:01;;;;;;;25.60;15.43;;;;;;;7.53;100.00;99084.91;4995917;28;21286;-51
2022/04/27 04:00:29;;;;;;;25.17;15.07;;;;;;;7.48;100.00;99096.63;4994224;28;20206;-51
2022/04/27 04:03:07;;;;;;;23.47;14.43;;;;;;;7.54;100.00;99090.94;4996427;28;20240;-52
2022/04/27 04:05:36;;;;;;;24.07;15.43;;;;;;;7.55;100.00;99090.00;4995685;28;20214;-51
2022/04/27 04:08:03;;;;;;;23.27;14.43;;;;;;;7.51;100.00;99088.59;4993987;28;20215;-51
2022/04/27 04:10:30;;;;;;;22.97;15.17;;;;;;;7.51;100.00;99093.78;4996945;28;20201;-51
2022/04/27 04:12:57;;;;;;;26.60;15.93;;;;;;;7.48;100.00;99088.81;5004593;28;20689;-51
2022/04/27 04:16:02;;;;;;;23.10;15.07;;;;;;;7.45;100.00;99089.06;4997511;28;20581;-50
2022/04/27 04:19:01;;;;;;;22.97;14.63;;;;;;;7.49;100.00;99099.06;5005083;28;20196;-50
2022/04/27 04:21:43;;;;;;;25.53;14.53;;;;;;;7.45;100.00;99100.25;4995340;28;20247;-53
2022/04/27 04:24:28;;;;;;;27.97;15.57;;;;;;;7.42;100.00;99103.09;5021351;28;20222;-50
2022/04/27 04:29:40;;;;;;;25.63;15.07;;;;;;;7.47;100.00;99108.75;5000440;28;20200;-52
2022/04/27 04:32:08;;;;;;;24.33;14.20;;;;;;;7.46;100.00;99107.09;5002649;28;20233;-50
2022/04/27 04:34:58;;;;;;;22.33;14.47;;;;;;;7.45;100.00;99109.84;4998976;28;20259;-51
2022/04/27 04:37:26;;;;;;;23.47;14.77;;;;;;;7.45;100.00;99108.06;4997421;28;20240;-50
2022/04/27 04:39:54;;;;;;;21.63;14.17;;;;;;;7.43;100.00;99109.94;5003394;28;20197;-50
2022/04/27 04:42:23;;;;;;;24.70;15.03;;;;;;;7.44;100.00;99113.38;5001403;28;20255;-50
2022/04/27 04:44:50;;;;;;;48.17;27.70;;;;;;;7.46;100.00;99122.69;4999289;28;20837;-50
2022/04/27 04:47:35;;;;;;;38.90;23.20;;;;;;;7.48;100.00;99112.19;5017583;28;20215;-51
2022/04/27 04:50:21;;;;;;;32.70;20.80;;;;;;;7.55;100.00;99126.38;5019426;28;20318;-51
2022/04/27 04:53:21;;;;;;;31.53;20.17;;;;;;;7.53;100.00;99133.44;4977369;28;20312;-50
2022/04/27 04:56:08;;;;;;;23.77;15.43;;;;;;;7.57;100.00;99128.84;4977513;28;20243;-51
2022/04/27 04:58:53;;;;;;;23.20;14.23;;;;;;;7.63;100.00;99136.16;5017028;28;20254;-50
2022/04/27 05:01:40;;;;;;;33.63;17.47;;;;;;;7.60;100.00;99133.78;5014377;28;20267;-51
2022/04/27 05:04:27;;;;;;;29.67;18.47;;;;;;;7.62;100.00;99127.53;5011113;28;20217;-50
2022/04/27 05:07:19;;;;;;;27.87;16.50;;;;;;;7.72;100.00;99140.63;4992919;28;20201;-50
2022/04/27 05:09:59;;;;;;;25.67;16.20;;;;;;;7.64;100.00;99137.81;5000647;28;20208;-52
2022/04/27 05:12:44;;;;;;;27.07;16.07;;;;;;;7.68;100.00;99137.47;5011275;28;20841;-50
2022/04/27 05:15:26;;;;;;;27.40;17.53;;;;;;;7.74;100.00;99141.34;5011565;28;20195;-50
2022/04/27 05:18:13;;;;;;;30.50;18.93;;;;;;;7.72;100.00;99142.41;5014133;28;20683;-50
2022/04/27 05:20:58;;;;;;;32.97;18.87;;;;;;;7.76;100.00;99142.03;5017722;28;20227;-50
2022/04/27 05:23:37;;;;;;;26.53;16.90;;;;;;;7.86;100.00;99149.97;5022121;28;20259;-51
2022/04/27 05:26:27;;;;;;;28.47;17.33;;;;;;;7.87;100.00;99150.78;4995227;28;20236;-50
2022/04/27 05:32:27;;;;;;;34.67;19.13;;;;;;;7.87;100.00;99150.78;4996204;28;20205;-51
2022/04/27 05:35:27;;;;;;;33.27;19.73;;;;;;;7.89;100.00;99159.28;4990857;28;20344;-51
2022/04/27 05:38:29;;;;;;;33.60;20.43;;;;;;;7.83;100.00;99169.22;4971991;28;20199;-50
2022/04/27 05:40:59;;;;;;;34.13;19.97;;;;;;;7.91;100.00;99166.03;5005908;28;20669;-50
2022/04/27 05:43:48;;;;;;;37.77;23.50;;;;;;;7.94;100.00;99171.00;5000363;28;20220;-50
2022/04/27 05:46:30;;;;;;;34.77;21.27;;;;;;;8.00;100.00;99161.88;5008222;28;20196;-51
2022/04/27 05:49:26;;;;;;;32.90;20.43;;;;;;;8.05;100.00;99170.13;5016051;28;20197;-51
2022/04/27 05:52:12;;;;;;;30.03;19.47;;;;;;;8.07;100.00;99175.19;5034361;28;20193;-48
2022/04/27 05:54:54;;;;;;;33.47;19.40;;;;;;;8.10;100.00;99174.97;5016142;28;20244;-49
2022/04/27 05:57:44;;;;;;;30.97;19.33;;;;;;;8.09;100.00;99175.91;5028548;28;20202;-49
2022/04/27 06:00:26;;;;;;;29.83;18.27;;;;;;;8.16;100.00;99178.84;5015525;28;20612;-52
2022/04/27 06:03:12;;;;;;;30.65;22.05;;;;;;;8.24;100.00;99190.28;5004555;28;20529;-51
2022/04/27 06:05:38;;;;;;;24.63;15.83;;;;;;;8.25;100.00;99191.94;5003226;28;20673;-50
2022/04/27 06:08:06;;;;;;;23.33;16.10;;;;;;;8.30;100.00;99198.56;5007461;28;20201;-50
2022/04/27 06:10:34;;;;;;;23.77;15.07;;;;;;;8.37;100.00;99197.97;5006986;28;20672;-50
2022/04/27 06:13:01;;;;;;;25.23;16.97;;;;;;;8.41;100.00;99191.56;5015970;28;20531;-50
2022/04/27 06:15:48;;;;;;;27.80;16.50;;;;;;;8.49;100.00;99200.53;5033589;28;20566;-51
2022/04/27 06:18:32;;;;;;;28.13;18.77;;;;;;;8.51;100.00;99194.28;5007217;28;20293;-50
2022/04/27 06:20:58;;;;;;;27.73;18.40;;;;;;;8.58;100.00;99205.00;5018956;28;20189;-50
2022/04/27 06:23:25;;;;;;;29.10;18.37;;;;;;;8.60;100.00;99208.31;5007964;28;20217;-50
2022/04/27 06:25:52;;;;;;;25.00;18.00;;;;;;;8.61;100.00;99203.94;5000791;28;20197;-50
2022/04/27 06:28:22;;;;;;;18.30;12.67;;;;;;;8.52;100.00;99205.50;5024786;28;20244;-50
2022/04/27 06:30:54;;;;;;;21.67;14.13;;;;;;;8.50;100.00;99210.84;5000912;28;20245;-50
2022/04/27 06:33:23;;;;;;;23.13;14.50;;;;;;;8.49;100.00;99213.53;4995704;28;20553;-51
2022/04/27 06:35:50;;;;;;;18.50;12.80;;;;;;;8.58;100.00;99218.00;4995718;28;20219;-47
2022/04/27 06:38:19;;;;;;;17.43;12.27;;;;;;;8.56;100.00;99219.91;4995507;28;20199;-48
2022/04/27 06:40:48;;;;;;;14.60;10.50;;;;;;;8.48;98.92;99222.28;4994737;28;20199;-50
2022/04/27 06:43:16;;;;;;;15.87;11.17;;;;;;;8.57;99.24;99212.00;4995655;28;20214;-50
2022/04/27 06:45:48;;;;;;;15.97;10.30;;;;;;;8.61;97.70;99219.56;5013384;28;20198;-50
2022/04/27 06:48:35;;;;;;;14.17;10.40;;;;;;;8.65;97.59;99218.38;5012996;28;20240;-48
2022/04/27 06:51:21;;;;;;;13.93;10.57;;;;;;;8.77;95.68;99221.75;5013172;28;20324;-48
2022/04/27 06:54:17;;;;;;;13.50;9.60;;;;;;;8.81;94.49;99221.38;4959209;28;20311;-50
2022/04/27 06:57:21;;;;;;;13.23;10.13;;;;;;;9.10;91.50;99219.94;5007549;28;20673;-49
2022/04/27 07:00:12;;;;;;;15.33;10.50;;;;;;;9.05;93.20;99229.91;4985677;28;20198;-50
2022/04/27 07:02:40;;;;;;;14.90;11.10;;;;;;;9.23;92.05;99219.72;5006310;28;20192;-50
2022/04/27 07:05:12;;;;;;;16.90;10.53;;;;;;;9.25;90.42;99226.50;5024245;28;20235;-53
2022/04/27 07:07:39;;;;;;;14.93;10.73;;;;;;;9.12;92.28;99228.44;4979281;28;20618;-50
2022/04/27 07:10:06;;;;;;;16.37;11.33;;;;;;;9.40;91.17;99228.78;4986716;28;20210;-50
2022/04/27 07:12:33;;;;;;;20.80;13.50;;;;;;;9.03;91.52;99230.00;5012824;28;20695;-50
2022/04/27 07:14:59;;;;;;;23.67;15.67;;;;;;;9.32;90.17;99229.41;5012556;28;20253;-50
2022/04/27 07:17:26;;;;;;;22.90;14.07;;;;;;;9.14;90.88;99234.34;5012501;28;20206;-50
2022/04/27 07:19:53;;;;;;;18.03;13.27;;;;;;;9.21;89.26;99235.50;5012250;28;20243;-50
2022/04/27 07:22:21;;;;;;;17.27;11.90;;;;;;;9.42;89.56;99232.06;5012725;28;20182;-50
2022/04/27 07:24:49;;;;;;;18.50;14.20;;;;;;;9.50;89.56;99242.69;5012408;28;20562;-50
2022/04/27 07:27:16;;;;;;;18.70;12.50;;;;;;;9.76;89.10;99237.03;5012506;28;20594;-50
2022/04/27 07:29:43;;;;;;;16.60;12.23;;;;;;;9.89;89.03;99237.63;5012080;28;20195;-50
2022/04/27 07:32:10;;;;;;;21.20;15.93;;;;;;;9.97;86.04;99242.22;5012549;28;20194;-50
2022/04/27 07:34:37;;;;;;;47.00;39.17;;;;;;;9.77;89.35;99241.28;5012191;28;20225;-50
2022/04/27 07:37:05;;;;;;;21.07;15.13;;;;;;;9.67;90.04;99241.25;5012416;28;20666;-50
2022/04/27 07:39:33;;;;;;;19.43;13.23;;;;;;;9.86;89.53;99244.91;5012178;28;20194;-50
2022/04/27 07:42:00;;;;;;;17.70;12.43;;;;;;;9.48;88.82;99241.97;5012345;28;20188;-50
2022/04/27 07:44:27;;;;;;;18.47;13.13;;;;;;;9.56;90.52;99247.34;5011536;28;20209;-50
2022/04/27 07:46:54;;;;;;;18.97;12.20;;;;;;;9.86;87.57;99250.94;5012321;28;20195;-50
2022/04/27 07:49:22;;;;;;;19.43;13.30;;;;;;;9.65;89.22;99248.38;4994278;28;20198;-51
2022/04/27 07:51:50;;;;;;;18.80;13.23;;;;;;;9.82;90.51;99246.13;5011796;28;20674;-50
2022/04/27 07:54:17;;;;;;;19.67;12.37;;;;;;;9.92;88.75;99249.59;5012077;28;20675;-51
2022/04/27 07:56:45;;;;;;;18.23;12.37;;;;;;;10.14;86.57;99250.34;5012199;28;20187;-50
2022/04/27 07:59:11;;;;;;;16.23;11.73;;;;;;;10.17;87.41;99250.06;5011256;28;20224;-53
2022/04/27 08:01:38;;;;;;;29.07;19.17;;;;;;;10.22;83.48;99258.34;5012447;28;20249;-50
2022/04/27 08:04:05;;;;;;;20.40;14.57;;;;;;;10.28;85.50;99254.38;5012089;28;20225;-51
2022/04/27 08:06:32;;;;;;;15.83;11.60;;;;;;;10.29;84.61;99259.44;5012218;28;20226;-51
2022/04/27 08:08:59;;;;;;;18.93;13.80;;;;;;;10.32;85.25;99255.75;5011774;28;20182;-50
2022/04/27 08:11:26;;;;;;;18.17;11.63;;;;;;;10.54;84.18;99264.38;5011878;28;20272;-50
2022/04/27 08:13:54;;;;;;;14.83;11.80;;;;;;;10.68;84.40;99261.34;5011947;28;20206;-50
2022/04/27 08:16:39;;;;;;;15.90;11.33;;;;;;;10.93;82.00;99265.22;5012558;28;20217;-48
2022/04/27 08:19:05;;;;;;;17.17;11.40;;;;;;;10.66;83.62;99271.09;4994030;28;20670;-48
2022/04/27 08:21:32;;;;;;;15.70;12.10;;;;;;;10.76;81.69;99276.34;5011878;28;20699;-50
2022/04/27 08:23:59;;;;;;;15.50;10.97;;;;;;;10.74;83.00;99270.44;5011631;28;20200;-49
2022/04/27 08:26:26;;;;;;;14.43;10.57;;;;;;;10.26;84.70;99279.78;5011950;28;20194;-50
2022/04/27 08:28:55;;;;;;;16.70;10.83;;;;;;;10.50;83.95;99281.25;5011610;28;20198;-50
2022/04/27 08:31:21;;;;;;;14.70;10.50;;;;;;;10.76;82.37;99284.19;5011978;28;20190;-50
2022/04/27 08:33:48;;;;;;;14.00;10.27;;;;;;;10.76;82.41;99282.38;5011659;28;20678;-49
2022/04/27 08:36:15;;;;;;;14.30;10.17;;;;;;;10.51;82.94;99283.72;5011864;28;20195;-49
2022/04/27 08:38:42;;;;;;;16.13;12.77;;;;;;;11.03;83.57;99291.34;5011321;28;20706;-49
2022/04/27 08:41:09;;;;;;;15.63;10.90;;;;;;;11.48;80.81;99287.31;5011907;28;20541;-49
2022/04/27 08:43:36;;;;;;;13.43;9.63;;;;;;;11.84;77.81;99293.69;5011716;28;20687;-49
2022/04/27 08:46:06;;;;;;;14.83;9.70;;;;;;;12.06;75.13;99290.75;5011641;28;20210;-49
2022/04/27 08:48:33;;;;;;;17.20;11.20;;;;;;;11.45;77.57;99294.63;5011349;28;20664;-49
2022/04/27 08:51:02;;;;;;;51.47;39.53;;;;;;;11.61;77.53;99296.63;5011457;28;20555;-49
2022/04/27 08:53:29;;;;;;;13.53;9.70;;;;;;;11.42;80.44;99298.31;5011519;28;20226;-49
2022/04/27 08:55:56;;;;;;;14.50;10.53;;;;;;;11.91;79.81;99298.19;5011565;28;20214;-49
2022/04/27 08:58:24;;;;;;;11.43;9.23;;;;;;;12.01;75.03;99308.69;5011551;28;20194;-49
2022/04/27 09:00:51;;;;;;;10.10;8.20;;;;;;;12.13;74.05;99300.66;5011466;28;20207;-51
2022/04/27 09:03:27;;;;;;;109.27;55.70;;;;;;;12.02;75.50;99299.03;5013318;28;20214;-49
2022/04/27 09:05:55;;;;;;;15.13;11.00;;;;;;;12.21;73.47;99304.19;5015082;28;20205;-49
2022/04/27 09:08:24;;;;;;;11.53;8.63;;;;;;;11.98;73.37;99300.25;5015171;28;20194;-49
2022/04/27 09:10:51;;;;;;;13.60;9.27;;;;;;;12.03;73.21;99293.66;5014876;28;20195;-49
2022/04/27 09:13:18;;;;;;;12.43;9.37;;;;;;;11.93;74.71;99288.41;5014888;28;20203;-49
2022/04/27 09:15:44;;;;;;;15.77;12.47;;;;;;;11.51;77.83;99292.25;5015269;28;20220;-49
2022/04/27 09:21:05;;;;;;;11.27;7.57;;;;;;;11.62;77.76;99280.81;5014768;28;20229;-49
2022/04/27 09:23:37;;;;;;;9.20;7.37;;;;;;;11.85;76.34;99282.28;5014676;28;20225;-50
2022/04/27 09:26:28;;;;;;;8.10;6.80;;;;;;;12.02;75.36;99286.78;5014819;28;20279;-50
2022/04/27 09:28:55;;;;;;;9.80;6.70;;;;;;;11.71;75.85;99286.97;5009838;28;20298;-49
2022/04/27 09:31:29;;;;;;;9.70;6.97;;;;;;;11.89;76.66;99278.41;5014508;28;20676;-49
2022/04/27 09:34:00;;;;;;;8.30;6.87;;;;;;;11.85;76.64;99275.22;5014762;28;20675;-49
2022/04/27 09:36:29;;;;;;;10.27;8.20;;;;;;;11.99;74.36;99279.19;5014454;28;20191;-49
2022/04/27 09:38:57;;;;;;;7.67;6.60;;;;;;;12.17;75.45;99288.94;5014289;28;20191;-49
2022/04/27 09:41:38;;;;;;;8.00;5.40;;;;;;;12.40;73.69;99284.94;5014454;28;20188;-49
2022/04/27 09:44:05;;;;;;;7.00;5.73;;;;;;;12.22;74.88;99284.06;5014268;28;20210;-49
2022/04/27 09:46:40;;;;;;;7.30;5.90;;;;;;;12.05;74.92;99285.66;5014223;28;20672;-49
2022/04/27 09:49:11;;;;;;;8.47;5.47;;;;;;;12.05;72.61;99288.28;5014066;28;20198;-49
2022/04/27 09:51:47;;;;;;;6.30;5.30;;;;;;;12.03;73.74;99285.81;5014134;28;20247;-49
2022/04/27 09:54:19;;;;;;;8.83;5.47;;;;;;;11.89;73.70;99286.25;5014340;28;20702;-49
2022/04/27 09:56:51;;;;;;;6.30;4.80;;;;;;;11.88;74.30;99292.44;5014251;28;20188;-49
2022/04/27 09:59:21;;;;;;;7.17;5.27;;;;;;;12.21;74.41;99290.25;5013856;28;20218;-49
2022/04/27 10:01:50;;;;;;;5.70;4.77;;;;;;;12.59;70.97;99288.41;5013936;28;20222;-49
2022/04/27 10:04:21;;;;;;;6.43;4.33;;;;;;;12.63;70.44;99283.72;5014082;28;20668;-49
2022/04/27 10:06:51;;;;;;;6.43;4.53;;;;;;;12.75;70.40;99302.66;5013955;28;20219;-49
2022/04/27 10:09:17;;;;;;;5.63;4.30;;;;;;;12.70;69.68;99288.22;5013857;28;20194;-49
2022/04/27 10:11:45;;;;;;;5.23;4.27;;;;;;;13.11;68.63;99292.19;5013852;28;20211;-49
2022/04/27 10:14:12;;;;;;;4.73;3.77;;;;;;;13.29;67.64;99292.16;5013981;28;20215;-49
2022/04/27 10:16:39;;;;;;;4.87;4.37;;;;;;;13.47;68.09;99288.72;5013943;28;20190;-50
2022/04/27 10:19:10;;;;;;;5.13;4.03;;;;;;;12.72;65.21;99288.03;5013585;28;20238;-49
2022/04/27 10:21:39;;;;;;;4.87;3.80;;;;;;;12.84;67.49;99294.72;5013932;28;20189;-49
2022/04/27 10:24:08;;;;;;;4.77;4.00;;;;;;;13.17;67.46;99293.38;5013684;28;20647;-49
2022/04/27 10:26:35;;;;;;;5.90;3.60;;;;;;;13.47;64.65;99283.47;5013546;28;20180;-50
2022/04/27 10:29:05;;;;;;;5.07;3.83;;;;;;;13.68;65.85;99278.69;5013023;28;20190;-50
2022/04/27 10:32:02;;;;;;;4.47;3.70;;;;;;;13.37;65.45;99283.53;5013478;28;20188;-50
2022/04/27 10:34:29;;;;;;;8.27;3.73;;;;;;;13.71;64.95;99283.66;5013271;28;20756;-50
2022/04/27 10:36:56;;;;;;;4.50;3.57;;;;;;;13.37;65.20;99278.28;5013424;28;20193;-50
2022/04/27 10:39:26;;;;;;;4.97;3.50;;;;;;;13.41;65.17;99279.63;5012889;28;20556;-49
2022/04/27 10:42:32;;;;;;;3.70;3.40;;;;;;;13.84;62.77;99290.25;5013309;28;20181;-49
2022/04/27 10:45:09;;;;;;;5.43;3.40;;;;;;;13.33;64.33;99287.44;5013314;28;20258;-50
2022/04/27 10:47:38;;;;;;;3.90;3.00;;;;;;;13.38;63.01;99286.00;5013242;28;20661;-49
2022/04/27 10:50:29;;;;;;;4.00;3.07;;;;;;;13.71;63.10;99278.41;5012982;28;20264;-50
2022/04/27 10:52:57;;;;;;;3.60;2.83;;;;;;;12.88;64.55;99276.06;5013108;28;20188;-50
2022/04/27 10:55:53;;;;;;;4.33;2.90;;;;;;;13.60;63.92;99285.69;5013073;28;20227;-49
2022/04/27 10:58:26;;;;;;;3.53;2.93;;;;;;;13.95;62.58;99278.69;5013139;28;20195;-50
2022/04/27 11:01:27;;;;;;;3.83;2.80;;;;;;;14.16;61.62;99289.59;5013028;28;20205;-49
2022/04/27 11:04:02;;;;;;;4.07;2.80;;;;;;;14.36;60.81;99284.06;5012897;28;20219;-49
2022/04/27 11:07:02;;;;;;;3.57;2.73;;;;;;;14.41;59.92;99289.69;5012657;28;20190;-49
2022/04/27 11:09:44;;;;;;;3.40;2.67;;;;;;;14.47;58.90;99301.38;5012749;28;20192;-49
2022/04/27 11:12:14;;;;;;;2.70;2.30;;;;;;;14.21;61.22;99301.44;5012991;28;20267;-49
2022/04/27 11:14:42;;;;;;;4.70;2.87;;;;;;;14.33;60.12;99302.78;5012547;28;20212;-49
2022/04/27 11:17:09;;;;;;;3.13;2.40;;;;;;;14.91;58.04;99295.88;5012664;28;20197;-49
2022/04/27 11:19:36;;;;;;;4.13;2.40;;;;;;;14.35;58.96;99295.56;5012675;28;20190;-47
2022/04/27 11:22:15;;;;;;;3.20;2.73;;;;;;;14.38;58.37;99295.25;5012596;28;20190;-47
2022/04/27 11:24:44;;;;;;;3.00;2.53;;;;;;;14.71;59.23;99291.94;5012255;28;20215;-48
2022/04/27 11:27:13;;;;;;;6.43;2.40;;;;;;;14.69;56.43;99299.13;5012396;28;20189;-49
2022/04/27 11:29:40;;;;;;;5.13;2.87;;;;;;;14.75;56.41;99303.78;5012450;28;20196;-49
2022/04/27 11:32:28;;;;;;;3.47;2.57;;;;;;;15.05;55.11;99301.50;5012960;28;20385;-52
2022/04/27 11:34:55;;;;;;;2.50;2.20;;;;;;;14.79;57.82;99299.84;5012316;28;20208;-49
2022/04/27 11:37:22;;;;;;;3.57;2.70;;;;;;;14.79;56.82;99294.59;5012411;28;20181;-52
2022/04/27 11:39:50;;;;;;;3.37;2.80;;;;;;;14.82;55.73;99296.88;5011904;28;20255;-50
2022/04/27 11:42:18;;;;;;;2.77;2.40;;;;;;;15.23;54.74;99296.09;5012429;28;20192;-50
2022/04/27 11:44:52;;;;;;;2.30;2.10;;;;;;;15.37;53.50;99278.81;5012277;28;20228;-50
2022/04/27 11:47:32;;;;;;;4.70;2.63;;;;;;;15.15;52.65;99285.56;5012304;28;20607;-50
2022/04/27 11:50:00;;;;;;;3.10;2.47;;;;;;;15.35;52.00;99297.41;5012015;28;20190;-50
2022/04/27 11:52:30;;;;;;;2.53;2.33;;;;;;;15.48;50.56;99294.25;5012144;28;20586;-50
2022/04/27 11:55:01;;;;;;;2.33;2.03;;;;;;;15.83;51.51;99285.31;5012001;28;20223;-51
2022/04/27 11:57:29;;;;;;;2.47;2.27;;;;;;;14.93;52.86;99289.66;5012262;28;20282;-50
2022/04/27 11:59:57;;;;;;;6.90;2.27;;;;;;;14.77;52.72;99296.56;5012293;28;20190;-49